Dublin, Ireland

4:54 PM GMT on February 10, 2016 (GMT +0000)
Paulie - Swords West | | Change Station
CLOSE
Current Station
Personal Weather Station
Location: Swords, DUBLIN
Elevation: 138 ft
Nearby Weather Stations

Elev 138 ft 53.46 °N, 6.25 °W | Updated 9 seconds ago

Rain
Rain
43.7 °F
Feels Like 44 °F
N
0.0
Wind Variable Wind from SSW
Gusts 0.0 mph

Today
High -- | Low -- °F
--% Chance of Precip.
Yesterday
High -- | Low -- °F
Precip. -- in
Pressure 29.56 in
Visibility 6.2 miles
Clouds Few 1900 ft
Scattered Clouds 3100 ft
Windchill 44 °F
Dew Point 44 °F
Humidity 99%
Rainfall 0.05 in
Snow Depth Not available.
7:54 AM 5:24 PM
Waxing Crescent, 6% visible
METAR EIDW 101630Z 28007KT 9999 FEW019 SCT031 06/01 Q1001 NOSIG
Pressure 29.56 in
Visibility 6.2 miles
Clouds Few 1900 ft
Scattered Clouds 3100 ft
Windchill 44 °F
Dew Point 44 °F
Humidity 99%
Rainfall 0.05 in
Snow Depth Not available.
7:54 AM 5:24 PM
Waxing Crescent, 6% visible
METAR EIDW 101630Z 28007KT 9999 FEW019 SCT031 06/01 Q1001 NOSIG

10-Day Weather Forecast

Almanac

Astronomy

Feb. 10, 2016 Rise Set
Actual Time
Civil Twilight
Nautical Twilight
Astronomical Twilight
Moon
Length of Visible Light
Length of Day
Tomorrow will be .
, % of the Moon is Illuminated

Today's Extremes

Country Highs Country Lows

Community

WunderPhotos

Upload Photos

1,891,891 photos uploaded!

WunderBlog® & News

Nearby

Air Quality

  Air Quality AQ Index Pollutant
Not available.

Snow Depth

Station Depth Elevation

Earthquake Activity

City Distance Mag. Time & Date
Minimum magnitude displayed is 2.5.

Coastal Water Temperatures

Place Temperature

Stations

Nearby Weather Stations

Station Location Temp. Windchill Dew Point Humidity Wind Precip. Elev Updated Type